Time;durP1;ratioP1;P1;durP2;ratioP2;P2;SDS_P1;SDS_P2;PMS_P1;PMS_P2;Temp;Humidity;BMP_temperature;BMP_pressure;BME280_temperature;BME280_humidity;BME280_pressure;Samples;Min_cycle;Max_cycle;Signal;HPM_P1;HPM_P2
2020/12/13 00:01:32;;;;;;;5.85;2.53;;;;;;;27.10;29.50;95559.16;4946406;28;20058;-38
2020/12/13 00:03:57;;;;;;;4.47;2.45;;;;;;;27.11;29.43;95559.97;4948819;28;20046;-35
2020/12/13 00:06:23;;;;;;;5.97;2.30;;;;;;;27.11;29.46;95558.19;4954060;28;20837;-37
2020/12/13 00:08:49;;;;;;;3.13;2.10;;;;;;;27.09;29.40;95568.00;4953828;28;20046;-39
2020/12/13 00:11:16;;;;;;;4.18;2.00;;;;;;;27.09;29.43;95570.63;4950027;28;20078;-33
2020/12/13 00:13:41;;;;;;;5.85;2.60;;;;;;;27.07;29.53;95574.31;4965789;28;20039;-37
2020/12/13 00:16:07;;;;;;;7.78;2.53;;;;;;;27.07;29.54;95575.16;4961684;28;20039;-38
2020/12/13 00:18:32;;;;;;;5.47;2.20;;;;;;;27.07;29.39;95580.41;4952521;28;20030;-37
2020/12/13 00:20:58;;;;;;;7.30;2.38;;;;;;;27.07;29.17;95575.16;4950430;28;20047;-39
2020/12/13 00:23:24;;;;;;;4.95;2.58;;;;;;;27.07;29.34;95580.41;4948619;28;20045;-36
2020/12/13 00:25:50;;;;;;;4.70;2.33;;;;;;;27.06;29.48;95584.00;4952231;28;20504;-39
2020/12/13 00:28:16;;;;;;;6.30;2.35;;;;;;;27.05;29.41;95582.34;4967307;28;20052;-36
2020/12/13 00:30:41;;;;;;;6.68;2.25;;;;;;;27.06;29.42;95586.63;4947672;28;20043;-36
2020/12/13 00:33:06;;;;;;;5.40;2.30;;;;;;;27.06;29.42;95594.53;4951089;28;21685;-36
2020/12/13 00:35:32;;;;;;;4.40;2.22;;;;;;;27.03;29.27;95576.34;4951444;28;20042;-37
2020/12/13 00:37:57;;;;;;;4.32;1.90;;;;;;;27.06;29.27;95591.91;4966907;28;20031;-39
2020/12/13 00:40:23;;;;;;;3.90;2.10;;;;;;;27.06;29.38;95599.78;4951642;28;20479;-39
2020/12/13 00:42:48;;;;;;;4.78;2.20;;;;;;;27.07;29.34;95596.19;4955210;28;20507;-39
2020/12/13 00:45:14;;;;;;;4.63;2.22;;;;;;;27.07;29.42;95596.19;4950908;28;20043;-33
2020/12/13 00:47:39;;;;;;;4.47;1.95;;;;;;;27.06;29.43;95594.53;4968247;28;20058;-37
2020/12/13 00:50:05;;;;;;;4.03;2.03;;;;;;;27.07;29.44;95593.56;4952156;28;20382;-40
2020/12/13 00:52:31;;;;;;;4.72;2.15;;;;;;;27.07;29.37;95596.19;4948858;28;20419;-34
2020/12/13 00:54:56;;;;;;;3.63;2.00;;;;;;;27.07;29.33;95601.44;4949458;28;20477;-38
2020/12/13 00:57:24;;;;;;;3.67;2.10;;;;;;;27.06;29.35;95605.03;4947104;28;20058;-39
2020/12/13 00:59:50;;;;;;;4.05;2.03;;;;;;;27.08;29.41;95610.19;4948961;28;20142;-35
2020/12/13 01:02:16;;;;;;;4.80;2.25;;;;;;;27.09;29.22;95617.13;4947691;28;20118;-35
2020/12/13 01:04:42;;;;;;;4.43;2.10;;;;;;;27.08;29.39;95629.41;4947551;28;20218;-34
2020/12/13 01:07:08;;;;;;;3.83;1.85;;;;;;;27.07;29.11;95619.84;4960553;28;20626;-37
2020/12/13 01:09:33;;;;;;;5.82;2.05;;;;;;;27.08;29.32;95634.69;4954231;28;20061;-38
2020/12/13 01:11:59;;;;;;;5.03;1.88;;;;;;;27.08;29.17;95637.31;4946253;28;20723;-38
2020/12/13 01:14:25;;;;;;;3.78;1.90;;;;;;;27.08;29.36;95634.69;4944635;28;20050;-38
2020/12/13 01:16:54;;;;;;;3.28;1.67;;;;;;;27.09;29.37;95639.00;4961162;28;20039;-37
2020/12/13 01:19:20;;;;;;;3.83;2.00;;;;;;;27.09;29.37;95640.78;4959451;28;20039;-36
2020/12/13 01:21:45;;;;;;;4.35;2.08;;;;;;;27.08;29.20;95644.38;4947795;28;20051;-35
2020/12/13 01:24:11;;;;;;;3.35;1.90;;;;;;;27.06;29.40;95641.84;4950766;28;20053;-34
2020/12/13 01:26:37;;;;;;;3.15;1.83;;;;;;;27.07;29.31;95651.41;4963542;28;20480;-41
2020/12/13 01:29:02;;;;;;;4.00;1.92;;;;;;;27.06;29.22;95647.13;4952386;28;20066;-38
2020/12/13 01:31:28;;;;;;;5.10;1.60;;;;;;;27.06;29.27;95647.13;4945539;28;20389;-38
2020/12/13 01:33:54;;;;;;;2.60;1.60;;;;;;;27.07;29.27;95651.41;4947729;28;20750;-38
2020/12/13 01:36:21;;;;;;;2.67;1.73;;;;;;;27.06;29.22;95652.38;4951476;28;20039;-40
2020/12/13 01:38:47;;;;;;;2.92;1.88;;;;;;;27.07;29.21;95659.31;4947386;28;20043;-37
2020/12/13 01:41:12;;;;;;;2.92;1.52;;;;;;;27.07;29.34;95663.72;4946461;28;20035;-38
2020/12/13 01:43:38;;;;;;;4.35;2.00;;;;;;;27.07;29.32;95669.81;4947766;28;20856;-38
2020/12/13 01:46:04;;;;;;;6.28;1.95;;;;;;;27.07;29.38;95661.94;4950349;28;20137;-35
2020/12/13 01:48:30;;;;;;;2.40;1.60;;;;;;;27.07;29.14;95664.56;4944570;28;20512;-39
2020/12/13 01:53:24;;;;;;;3.78;1.60;;;;;;;27.02;29.18;95658.81;4951804;28;20101;-35
2020/12/13 01:55:50;;;;;;;2.47;1.60;;;;;;;27.05;29.23;95665.63;4950431;28;20070;-35
2020/12/13 01:58:21;;;;;;;3.92;1.70;;;;;;;27.07;29.33;95668.97;4964877;28;20092;-36
2020/12/13 02:00:48;;;;;;;3.10;1.42;;;;;;;27.07;29.29;95672.44;4951666;28;20039;-39
2020/12/13 02:03:19;;;;;;;3.65;1.77;;;;;;;27.07;29.20;95675.06;4948089;28;20137;-38
2020/12/13 02:05:47;;;;;;;2.92;1.90;;;;;;;27.08;29.12;95681.19;4963398;28;20071;-37
2020/12/13 02:08:12;;;;;;;1.58;1.30;;;;;;;27.08;29.36;95676.75;4964304;28;20083;-36
2020/12/13 02:10:38;;;;;;;2.75;1.50;;;;;;;27.08;29.17;95676.75;4948013;28;20038;-40
2020/12/13 02:13:03;;;;;;;2.60;1.50;;;;;;;27.08;29.30;95682.00;4948734;28;20112;-38
2020/12/13 02:15:29;;;;;;;3.67;1.42;;;;;;;27.07;29.27;95676.84;4946952;28;20054;-46
2020/12/13 02:17:55;;;;;;;3.00;1.50;;;;;;;27.07;29.28;95679.50;4951421;28;20062;-38
2020/12/13 02:20:21;;;;;;;3.00;1.80;;;;;;;27.04;29.03;95675.31;4949732;28;20084;-36
2020/12/13 02:22:47;;;;;;;2.67;1.42;;;;;;;27.07;29.23;95679.50;4960724;28;20484;-38
2020/12/13 02:25:14;;;;;;;5.10;1.67;;;;;;;27.06;29.28;95686.56;4947321;28;20051;-37
2020/12/13 02:27:39;;;;;;;2.55;1.38;;;;;;;27.02;29.27;95677.22;4948304;28;20038;-37
2020/12/13 02:30:05;;;;;;;3.63;1.63;;;;;;;27.03;29.23;95689.41;4965581;28;20641;-41
2020/12/13 02:32:30;;;;;;;3.00;1.77;;;;;;;27.03;29.27;95694.66;4951347;28;20045;-41
2020/12/13 02:34:57;;;;;;;2.22;1.48;;;;;;;27.03;29.05;95696.47;4948996;28;20582;-37
2020/12/13 02:37:23;;;;;;;2.92;1.65;;;;;;;27.02;29.18;95703.50;4945831;28;20394;-37
2020/12/13 02:39:49;;;;;;;2.75;1.63;;;;;;;27.02;29.18;95714.03;4950467;28;20077;-37
2020/12/13 02:42:15;;;;;;;2.97;1.38;;;;;;;27.02;29.20;95713.19;4947772;28;20043;-37
2020/12/13 02:44:41;;;;;;;2.60;1.40;;;;;;;27.02;29.20;95714.03;4950758;28;20420;-38
2020/12/13 02:47:06;;;;;;;2.08;1.30;;;;;;;27.04;29.30;95716.56;4946747;28;20039;-36
2020/12/13 02:49:33;;;;;;;3.00;1.45;;;;;;;27.03;29.30;95704.38;4947763;28;20050;-38
2020/12/13 02:51:58;;;;;;;2.78;1.40;;;;;;;27.02;29.40;95706.16;4943130;28;20043;-36
2020/12/13 02:54:24;;;;;;;3.53;1.23;;;;;;;27.00;29.22;95705.41;4951141;28;20485;-37
2020/12/13 02:56:50;;;;;;;2.15;1.30;;;;;;;27.01;29.17;95715.00;4949634;28;20036;-37
2020/12/13 02:59:16;;;;;;;1.40;1.10;;;;;;;27.01;29.20;95722.88;4950067;28;20646;-39
2020/12/13 03:01:41;;;;;;;2.17;1.30;;;;;;;27.03;29.45;95725.41;4946638;28;20061;-36
2020/12/13 03:04:07;;;;;;;2.80;1.58;;;;;;;27.03;29.26;95725.41;4957151;28;20051;-37
2020/12/13 03:06:33;;;;;;;2.35;1.42;;;;;;;27.01;29.33;95725.50;4947425;28;20031;-38
2020/12/13 03:08:58;;;;;;;2.70;1.20;;;;;;;27.00;29.19;95726.44;4945795;28;20061;-36
2020/12/13 03:11:24;;;;;;;4.00;1.35;;;;;;;27.00;29.35;95722.03;4960635;28;20043;-38
2020/12/13 03:13:50;;;;;;;2.75;1.70;;;;;;;27.00;29.26;95729.06;4947632;28;20051;-37
2020/12/13 03:16:16;;;;;;;2.25;1.50;;;;;;;26.97;29.31;95724.06;4965083;28;20035;-36
2020/12/13 03:18:42;;;;;;;2.97;1.77;;;;;;;26.96;29.20;95731.09;4948908;28;20455;-36
2020/12/13 03:21:08;;;;;;;3.05;1.83;;;;;;;26.97;29.19;95724.06;4946519;28;20093;-38
2020/12/13 03:23:33;;;;;;;1.60;1.38;;;;;;;26.97;29.33;95735.41;4950687;28;20051;-39
2020/12/13 03:25:59;;;;;;;2.28;1.48;;;;;;;26.98;29.25;95733.63;4952913;28;20039;-38
2020/12/13 03:28:24;;;;;;;2.10;1.52;;;;;;;26.98;29.30;95739.72;4952308;28;20747;-40
2020/12/13 03:30:50;;;;;;;3.75;1.90;;;;;;;26.98;29.29;95733.63;4956017;28;20038;-36
2020/12/13 03:33:16;;;;;;;2.60;2.05;;;;;;;26.97;29.23;95737.22;4953818;28;20055;-38
2020/12/13 03:35:41;;;;;;;3.22;2.08;;;;;;;26.98;29.25;95744.13;4953227;28;20062;-36
2020/12/13 03:38:07;;;;;;;2.95;2.30;;;;;;;26.97;29.38;95745.09;4949223;28;20211;-37
2020/12/13 03:40:32;;;;;;;3.80;2.58;;;;;;;26.98;29.13;95749.41;4969727;28;20034;-37
2020/12/13 03:42:57;;;;;;;2.17;1.98;;;;;;;26.97;29.13;95748.53;4951027;28;20047;-36
2020/12/13 03:45:23;;;;;;;3.58;2.28;;;;;;;26.97;29.19;95752.97;4952561;28;20368;-37
2020/12/13 03:47:49;;;;;;;3.80;2.08;;;;;;;26.96;29.06;95752.13;4956817;28;20050;-39
2020/12/13 03:50:15;;;;;;;2.60;2.00;;;;;;;26.96;29.27;95752.13;4967553;28;20051;-36
2020/12/13 03:52:41;;;;;;;3.67;2.20;;;;;;;26.97;29.07;95755.63;4949652;28;20046;-41
2020/12/13 03:55:07;;;;;;;4.05;2.35;;;;;;;26.96;29.23;95761.84;4957138;28;20031;-36
2020/12/13 03:57:33;;;;;;;3.50;2.22;;;;;;;26.94;29.13;95769.81;4954295;28;20932;-39
2020/12/13 03:59:59;;;;;;;3.42;2.10;;;;;;;26.95;29.28;95775.91;4953762;28;20089;-37
2020/12/13 04:02:25;;;;;;;3.05;2.10;;;;;;;26.96;29.21;95777.59;4968209;28;20034;-37
2020/12/13 04:04:50;;;;;;;2.95;2.10;;;;;;;26.95;29.24;95776.75;4955669;28;20746;-34
2020/12/13 04:07:16;;;;;;;2.67;2.10;;;;;;;26.95;29.22;95781.16;4955150;28;20038;-37
2020/12/13 04:09:42;;;;;;;3.05;2.25;;;;;;;26.96;29.31;95786.31;4955250;28;20047;-38
2020/12/13 04:12:08;;;;;;;3.20;2.38;;;;;;;26.96;29.25;95790.75;4953787;28;20436;-37
2020/12/13 04:14:33;;;;;;;3.00;2.30;;;;;;;26.96;29.32;95788.13;4950938;28;20053;-40
2020/12/13 04:16:59;;;;;;;2.97;2.47;;;;;;;26.94;29.09;95793.50;4958934;28;20038;-38
2020/12/13 04:19:25;;;;;;;3.05;2.35;;;;;;;26.94;29.40;95803.13;4973764;28;20049;-39
2020/12/13 04:21:52;;;;;;;2.65;2.00;;;;;;;26.92;29.31;95797.97;4953919;28;20527;-39
2020/12/13 04:24:18;;;;;;;4.20;2.22;;;;;;;26.94;29.35;95803.13;4952466;28;20042;-38
2020/12/13 04:26:44;;;;;;;2.42;2.10;;;;;;;26.92;29.30;95805.03;4954578;28;20089;-34
2020/12/13 04:29:11;;;;;;;4.38;2.53;;;;;;;26.92;29.26;95815.56;4970202;28;20026;-38
2020/12/13 04:31:36;;;;;;;2.67;2.10;;;;;;;26.91;29.24;95813.84;4953426;28;20515;-37
2020/12/13 04:34:02;;;;;;;2.88;2.05;;;;;;;26.90;29.38;95812.19;4956840;28;20054;-38
2020/12/13 04:36:28;;;;;;;2.72;1.80;;;;;;;26.91;29.34;95816.47;4953437;28;20096;-37
2020/12/13 04:38:53;;;;;;;2.10;1.90;;;;;;;26.89;29.26;95814.00;4949016;28;20885;-35
2020/12/13 04:41:19;;;;;;;2.72;2.15;;;;;;;26.89;29.27;95808.72;4946010;28;20054;-38
2020/12/13 04:43:45;;;;;;;2.60;2.20;;;;;;;26.89;29.25;95811.38;4931410;28;20658;-39
2020/12/13 04:46:11;;;;;;;2.38;2.00;;;;;;;26.91;29.28;95816.47;4952485;28;20046;-38
2020/12/13 04:48:37;;;;;;;2.55;1.90;;;;;;;26.90;29.31;95815.66;4964809;28;20101;-37
2020/12/13 04:51:03;;;;;;;2.63;2.10;;;;;;;26.90;29.35;95820.06;4945425;28;20078;-36
2020/12/13 04:53:29;;;;;;;2.65;2.15;;;;;;;26.90;29.13;95820.06;4943471;28;20157;-40
2020/12/13 04:55:56;;;;;;;4.28;2.30;;;;;;;26.90;29.31;95820.06;4949548;28;20063;-38
2020/12/13 04:58:22;;;;;;;1.90;1.70;;;;;;;26.88;29.26;95820.19;4949438;28;20051;-36
2020/12/13 05:00:55;;;;;;;4.05;1.98;;;;;;;26.90;29.28;95830.59;4944978;28;20101;-40
2020/12/13 05:03:22;;;;;;;3.22;2.40;;;;;;;26.88;29.27;95834.16;4948646;28;20146;-36
2020/12/13 05:05:48;;;;;;;3.58;2.20;;;;;;;26.87;29.21;95823.75;4947237;28;20141;-34
2020/12/13 05:08:13;;;;;;;2.45;2.08;;;;;;;26.86;29.25;95833.44;4951253;28;20130;-38
2020/12/13 05:10:39;;;;;;;2.97;2.20;;;;;;;26.86;29.21;95835.22;4948263;28;20058;-39
2020/12/13 05:13:08;;;;;;;3.17;2.35;;;;;;;26.86;29.37;95840.50;4963978;28;20043;-34
2020/12/13 05:15:35;;;;;;;2.60;2.10;;;;;;;26.86;29.14;95846.56;4946689;28;20051;-37
2020/12/13 05:18:01;;;;;;;5.07;2.10;;;;;;;26.85;29.37;95847.53;4947712;28;20177;-40
2020/12/13 05:20:27;;;;;;;2.65;2.30;;;;;;;26.84;29.28;95848.50;4965918;28;20051;-37
2020/12/13 05:22:57;;;;;;;2.85;2.10;;;;;;;26.83;29.30;95841.56;4948633;28;20050;-36
2020/12/13 05:25:29;;;;;;;2.58;2.13;;;;;;;26.84;29.32;95853.75;4947870;28;20064;-35
2020/12/13 05:27:55;;;;;;;2.75;2.25;;;;;;;26.83;29.35;95851.22;4953036;28;20452;-38
2020/12/13 05:30:31;;;;;;;2.97;2.22;;;;;;;26.82;29.33;95855.66;4948079;28;20145;-39
2020/12/13 05:32:59;;;;;;;3.17;2.28;;;;;;;26.81;29.42;95861.84;4945563;28;20030;-36
2020/12/13 05:35:26;;;;;;;2.30;2.10;;;;;;;26.80;29.13;95857.53;4949203;28;20042;-38
2020/12/13 05:37:52;;;;;;;2.67;2.25;;;;;;;26.81;29.43;95869.72;4927451;28;20070;-38
2020/12/13 05:40:17;;;;;;;2.17;1.98;;;;;;;26.81;29.44;95864.47;4963409;28;20047;-35
2020/12/13 05:42:46;;;;;;;2.75;1.92;;;;;;;26.81;29.44;95869.72;4951618;28;20093;-37
2020/12/13 05:45:27;;;;;;;2.05;1.85;;;;;;;26.82;29.37;95870.56;4946754;28;20050;-39
2020/12/13 05:50:57;;;;;;;2.03;1.80;;;;;;;26.83;29.42;95878.34;4948587;28;20039;-37
2020/12/13 05:53:23;;;;;;;2.67;1.95;;;;;;;26.84;29.20;95880.03;4943239;28;20034;-39
2020/12/13 05:55:52;;;;;;;3.10;2.08;;;;;;;26.82;29.41;95881.94;4947173;28;20038;-36
2020/12/13 05:58:19;;;;;;;2.10;1.90;;;;;;;26.73;29.25;95870.28;4948676;28;20480;-40
2020/12/13 06:00:44;;;;;;;2.33;1.77;;;;;;;26.84;29.32;95894.94;4960107;28;20195;-37
2020/12/13 06:03:10;;;;;;;2.38;1.83;;;;;;;26.84;29.31;95889.69;4943741;28;20504;-38
2020/12/13 06:05:38;;;;;;;2.30;2.10;;;;;;;26.84;29.39;95895.81;4945221;28;20046;-37
2020/12/13 06:08:05;;;;;;;2.58;1.98;;;;;;;26.82;29.25;95897.72;4955534;28;20042;-37
2020/12/13 06:10:36;;;;;;;2.38;1.90;;;;;;;26.79;29.22;95897.94;4953951;28;20701;-39
2020/12/13 06:13:08;;;;;;;2.83;1.83;;;;;;;26.80;29.42;95909.25;4960659;28;20050;-37
2020/12/13 06:15:34;;;;;;;;;;;;;;;26.82;29.32;95910.00;4947776;28;20536;-39
2020/12/13 06:18:00;;;;;;;3.08;2.03;;;;;;;26.81;29.37;95917.03;4953047;28;19936;-35
2020/12/13 06:20:26;;;;;;;1.95;1.75;;;;;;;26.81;29.45;95917.03;4947821;28;20688;-37
2020/12/13 06:22:51;;;;;;;2.50;1.75;;;;;;;26.82;29.38;95917.91;4944114;28;20055;-37
2020/12/13 06:25:20;;;;;;;4.47;2.45;;;;;;;26.80;29.16;95922.41;4947377;28;20066;-33
2020/12/13 06:27:49;;;;;;;5.50;2.95;;;;;;;26.79;28.91;95924.22;4966464;28;20035;-36
2020/12/13 06:30:15;;;;;;;4.60;2.65;;;;;;;26.74;29.19;95931.59;4960146;28;20031;-41
2020/12/13 06:32:41;;;;;;;3.53;2.25;;;;;;;26.73;29.37;95929.88;4945890;28;20055;-39
2020/12/13 06:35:07;;;;;;;2.30;2.00;;;;;;;26.72;29.55;95921.19;4945606;28;20068;-40
2020/12/13 06:37:34;;;;;;;2.45;2.05;;;;;;;26.74;29.33;95931.59;4950196;28;20098;-36
2020/12/13 06:39:59;;;;;;;2.38;2.10;;;;;;;26.71;29.58;95931.78;4949093;28;20047;-37
2020/12/13 06:42:27;;;;;;;2.63;1.80;;;;;;;26.72;29.49;95938.72;4932007;28;20039;-38
2020/12/13 06:45:03;;;;;;;2.25;1.90;;;;;;;26.73;29.48;95935.13;4948420;28;20035;-39
2020/12/13 06:47:30;;;;;;;3.20;1.60;;;;;;;26.76;29.34;95952.50;4950415;28;20051;-37
2020/12/13 06:49:56;;;;;;;2.28;2.08;;;;;;;26.76;29.49;95955.13;4963996;28;20079;-38
2020/12/13 06:52:30;;;;;;;2.22;1.90;;;;;;;26.76;29.47;95955.97;4950093;28;20034;-35
2020/12/13 06:54:59;;;;;;;2.13;1.75;;;;;;;26.76;29.47;95955.97;4948031;28;20077;-38
2020/12/13 06:57:24;;;;;;;2.10;1.85;;;;;;;26.75;29.35;95964.78;4949683;28;20039;-36
2020/12/13 06:59:52;;;;;;;1.83;1.63;;;;;;;26.76;29.58;95965.66;4951726;28;20401;-46
2020/12/13 07:02:54;;;;;;;2.05;1.80;;;;;;;26.66;29.40;95955.75;4962100;28;20621;-41
2020/12/13 07:05:19;;;;;;;2.95;1.60;;;;;;;26.76;29.25;95969.09;4950997;28;20085;-38
2020/12/13 07:07:48;;;;;;;1.80;1.65;;;;;;;26.76;29.35;95971.72;4945569;28;20492;-37
2020/12/13 07:10:14;;;;;;;2.42;1.83;;;;;;;26.77;29.52;95973.41;4946240;28;20027;-40
2020/12/13 07:12:39;;;;;;;2.47;1.67;;;;;;;26.76;29.58;95976.97;4947389;28;20045;-37
2020/12/13 07:15:20;;;;;;;1.80;1.50;;;;;;;26.75;29.46;95985.81;4960302;28;20050;-37
2020/12/13 07:17:45;;;;;;;2.22;1.67;;;;;;;26.75;29.34;95988.44;4959657;28;20908;-39
2020/12/13 07:20:11;;;;;;;2.83;1.40;;;;;;;26.76;29.41;95991.94;4945478;28;20047;-39
2020/12/13 07:22:36;;;;;;;2.00;1.77;;;;;;;26.76;29.44;95992.75;4949959;28;20050;-38
2020/12/13 07:25:02;;;;;;;1.70;1.58;;;;;;;26.76;29.33;96002.44;4947620;28;20038;-40
2020/12/13 07:27:28;;;;;;;1.75;1.52;;;;;;;26.75;29.25;96006.84;4952784;28;20092;-40
2020/12/13 07:29:54;;;;;;;1.80;1.33;;;;;;;26.75;29.42;96012.09;4945897;28;20051;-37
2020/12/13 07:32:20;;;;;;;1.58;1.48;;;;;;;26.75;29.49;96014.75;4946994;28;20102;-36
2020/12/13 07:34:46;;;;;;;2.03;1.40;;;;;;;26.74;29.34;96020.94;4950729;28;20138;-33
2020/12/13 07:37:13;;;;;;;1.50;1.40;;;;;;;26.72;29.43;96018.41;4942809;28;20363;-39
2020/12/13 07:39:39;;;;;;;2.95;1.52;;;;;;;26.73;29.37;96019.25;4962379;28;20058;-39
2020/12/13 07:42:08;;;;;;;2.58;1.50;;;;;;;26.74;29.45;96023.56;4947843;28;20896;-35
2020/12/13 07:44:34;;;;;;;1.52;1.40;;;;;;;26.74;29.15;96026.19;4949790;28;20053;-40
2020/12/13 07:46:59;;;;;;;5.45;1.80;;;;;;;26.72;28.96;96028.94;4950139;28;20051;-38
2020/12/13 07:49:25;;;;;;;1.50;1.33;;;;;;;26.69;29.16;96029.13;4947850;28;20042;-38
2020/12/13 07:51:53;;;;;;;3.00;1.63;;;;;;;26.66;29.40;96033.78;4948089;28;20113;-41
2020/12/13 07:54:23;;;;;;;20.70;1.83;;;;;;;26.64;29.33;96044.38;4950217;28;21283;-38
2020/12/13 07:56:52;;;;;;;3.05;1.67;;;;;;;26.65;29.46;96042.59;4953304;28;20378;-41
2020/12/13 07:59:24;;;;;;;1.73;1.30;;;;;;;26.67;29.38;96057.31;4950999;28;20046;-36
2020/12/13 08:01:51;;;;;;;8.23;1.65;;;;;;;26.68;29.27;96050.25;4947267;28;20038;-39
2020/12/13 08:04:30;;;;;;;3.38;1.48;;;;;;;26.69;29.35;96055.41;4952707;28;20046;-38
2020/12/13 08:07:03;;;;;;;2.35;1.48;;;;;;;26.70;29.25;96061.53;4951980;28;20120;-39
2020/12/13 08:09:29;;;;;;;1.80;1.02;;;;;;;26.70;29.13;96056.28;4948505;28;20726;-40
2020/12/13 08:11:55;;;;;;;2.17;1.40;;;;;;;26.67;29.25;96057.31;4950786;28;20043;-39
2020/12/13 08:14:21;;;;;;;1.27;1.00;;;;;;;26.70;29.29;96057.09;4951787;28;20061;-36
2020/12/13 08:16:50;;;;;;;2.22;1.30;;;;;;;26.71;29.29;96073.72;4951321;28;20141;-39
2020/12/13 08:19:17;;;;;;;1.30;1.08;;;;;;;26.71;29.43;96078.97;4946745;28;20133;-37
2020/12/13 08:22:18;;;;;;;1.50;1.10;;;;;;;26.69;29.27;96070.38;4948943;28;20101;-39
2020/12/13 08:24:44;;;;;;;2.92;1.20;;;;;;;26.71;29.54;96065.84;4963384;28;20118;-37
2020/12/13 08:27:10;;;;;;;1.23;0.98;;;;;;;26.71;29.52;96068.47;4935911;28;20046;-37
2020/12/13 08:29:35;;;;;;;1.45;1.20;;;;;;;26.68;29.59;96066.03;4965716;28;20513;-39
2020/12/13 08:32:12;;;;;;;3.33;1.38;;;;;;;26.71;29.48;96068.47;4964725;28;20061;-40
2020/12/13 08:34:38;;;;;;;1.70;0.98;;;;;;;26.68;29.46;96066.03;4967329;28;20892;-37
2020/12/13 08:37:03;;;;;;;1.40;1.05;;;;;;;26.69;29.74;96068.56;4947020;28;20051;-38
2020/12/13 08:39:30;;;;;;;1.63;0.93;;;;;;;26.69;29.79;96073.00;4952278;28;20039;-36
2020/12/13 08:41:57;;;;;;;2.10;1.17;;;;;;;26.70;29.52;96077.28;4965557;28;20070;-38
2020/12/13 08:44:29;;;;;;;2.15;0.75;;;;;;;26.69;29.69;96075.63;4950846;28;20523;-33
2020/12/13 08:46:56;;;;;;;0.98;0.88;;;;;;;26.70;29.69;96074.66;4949257;28;20090;-42
2020/12/13 08:49:37;;;;;;;1.10;0.82;;;;;;;26.69;29.73;96078.25;4953248;28;20501;-40
2020/12/13 08:52:18;;;;;;;3.80;1.23;;;;;;;26.69;29.92;96086.13;4951400;28;20751;-37
2020/12/13 08:54:48;;;;;;;3.92;1.10;;;;;;;26.69;29.94;96091.38;4954494;28;20057;-37
2020/12/13 08:57:24;;;;;;;3.00;1.00;;;;;;;26.68;29.92;96095.78;4954343;28;20026;-37
2020/12/13 09:00:08;;;;;;;2.13;0.82;;;;;;;26.71;30.17;96103.47;4968848;28;20030;-37
2020/12/13 09:02:33;;;;;;;2.90;0.95;;;;;;;26.72;29.96;96101.66;4951044;28;20195;-39
2020/12/13 09:04:59;;;;;;;4.18;1.10;;;;;;;26.72;29.93;96112.19;4966353;28;20047;-38
2020/12/13 09:07:31;;;;;;;2.03;1.00;;;;;;;26.72;29.88;96113.03;4949377;28;20051;-40
2020/12/13 09:09:58;;;;;;;1.63;0.73;;;;;;;26.73;30.00;96113.84;4952576;28;20023;-36
2020/12/13 09:12:28;;;;;;;3.13;1.17;;;;;;;26.74;29.88;96121.66;4958458;28;20528;-36
2020/12/13 09:14:54;;;;;;;1.05;0.90;;;;;;;26.76;30.03;96124.19;4953231;28;20037;-37
2020/12/13 09:17:23;;;;;;;2.55;1.20;;;;;;;26.77;29.96;96120.59;4956006;28;20572;-39
2020/12/13 09:19:50;;;;;;;1.77;1.00;;;;;;;26.78;30.01;96131.97;4953173;28;20039;-36
2020/12/13 09:22:22;;;;;;;1.27;1.00;;;;;;;26.79;29.90;96139.75;4952550;28;20038;-39
2020/12/13 09:24:54;;;;;;;1.15;0.80;;;;;;;26.82;30.03;96150.06;4954468;28;20122;-36
2020/12/13 09:27:20;;;;;;;2.83;1.02;;;;;;;26.83;29.97;96146.47;4954898;28;20029;-37
2020/12/13 09:29:46;;;;;;;1.63;0.88;;;;;;;26.83;30.05;96154.38;4950760;28;20046;-36
2020/12/13 09:32:12;;;;;;;2.05;0.80;;;;;;;26.86;29.90;96164.66;4951781;28;20046;-38
2020/12/13 09:34:38;;;;;;;1.42;0.90;;;;;;;26.85;30.08;96164.78;4955759;28;20172;-37
2020/12/13 09:37:03;;;;;;;3.55;1.42;;;;;;;26.86;30.08;96155.94;4949664;28;20294;-38
2020/12/13 09:39:30;;;;;;;1.50;0.80;;;;;;;26.86;29.94;96154.13;4953523;28;20469;-40
2020/12/13 09:41:56;;;;;;;2.97;0.90;;;;;;;26.87;29.93;96161.09;4957858;28;20055;-38
2020/12/13 09:44:22;;;;;;;1.35;0.70;;;;;;;26.86;30.12;96159.41;4953845;28;20047;-35
2020/12/13 09:46:47;;;;;;;0.85;0.70;;;;;;;26.86;30.00;96162.03;4954002;28;20113;-39
2020/12/13 09:49:13;;;;;;;1.00;0.90;;;;;;;26.87;30.07;96158.47;4952542;28;20552;-39
2020/12/13 09:51:39;;;;;;;1.65;0.80;;;;;;;26.88;29.99;96162.78;4948795;28;20047;-38
2020/12/13 09:54:04;;;;;;;1.08;0.82;;;;;;;26.89;30.28;96161.00;4953468;28;20043;-38
2020/12/13 09:56:30;;;;;;;1.75;1.05;;;;;;;26.90;29.95;96161.84;4952220;28;20038;-40
2020/12/13 09:58:56;;;;;;;16.20;10.13;;;;;;;26.86;26.35;96167.28;4952321;28;20043;-37
2020/12/13 10:01:22;;;;;;;9.40;6.75;;;;;;;26.55;23.43;96153.56;4951885;28;20074;-36
2020/12/13 10:03:51;;;;;;;26.80;19.25;;;;;;;26.18;22.91;96166.47;4950426;28;20045;-36
2020/12/13 10:06:35;;;;;;;8.55;4.50;;;;;;;25.80;24.01;96171.47;4946809;28;20784;-37
2020/12/13 10:11:29;;;;;;;10.35;6.72;;;;;;;25.56;27.38;96187.78;4949569;28;20058;-38
2020/12/13 10:13:55;;;;;;;11.07;5.45;;;;;;;25.57;27.21;96184.25;4945397;28;20461;-39
2020/12/13 10:16:20;;;;;;;9.98;5.38;;;;;;;25.62;27.50;96186.56;4959792;28;20062;-38
2020/12/13 10:18:46;;;;;;;12.18;4.70;;;;;;;25.70;27.90;96179.06;4942822;28;20058;-38
2020/12/13 10:21:12;;;;;;;8.02;4.88;;;;;;;25.78;28.01;96189.06;4949304;28;20058;-37
2020/12/13 10:23:38;;;;;;;8.77;4.50;;;;;;;25.82;27.98;96177.44;4944737;28;20050;-40
2020/12/13 10:26:04;;;;;;;7.00;4.03;;;;;;;25.83;27.99;96173.88;4947989;28;20035;-39
2020/12/13 10:28:30;;;;;;;8.15;3.80;;;;;;;25.91;28.21;96176.03;4948039;28;20173;-41
2020/12/13 10:30:56;;;;;;;4.78;3.58;;;;;;;25.93;28.27;96170.69;4951732;28;20639;-37
2020/12/13 10:33:22;;;;;;;7.20;4.18;;;;;;;25.92;28.17;96175.09;4954658;28;21015;-36
2020/12/13 10:35:47;;;;;;;5.68;3.63;;;;;;;26.00;28.20;96171.97;4966143;28;20047;-37
2020/12/13 10:38:12;;;;;;;6.03;3.63;;;;;;;26.02;28.34;96177.97;4952749;28;20039;-39
2020/12/13 10:40:39;;;;;;;6.60;3.50;;;;;;;26.04;28.42;96176.09;4949263;28;20051;-37
2020/12/13 10:43:05;;;;;;;10.10;4.05;;;;;;;26.03;28.58;96174.41;4949352;28;20554;-39
2020/12/13 10:45:31;;;;;;;8.45;3.30;;;;;;;26.07;28.74;96175.91;4941417;28;20593;-36
2020/12/13 10:47:57;;;;;;;9.90;3.65;;;;;;;26.08;28.86;96172.31;4948511;28;20050;-39
2020/12/13 10:50:23;;;;;;;12.57;3.83;;;;;;;26.13;28.84;96179.06;4946444;28;20105;-40
2020/12/13 10:52:51;;;;;;;10.68;3.90;;;;;;;26.15;28.60;96175.41;4957026;28;20051;-37
2020/12/13 10:55:16;;;;;;;14.02;4.13;;;;;;;26.20;28.80;96180.38;4961092;28;20591;-37
2020/12/13 10:57:42;;;;;;;15.75;4.07;;;;;;;26.24;28.62;96176.59;4959907;28;20044;-34
2020/12/13 11:00:08;;;;;;;12.55;4.45;;;;;;;26.23;28.71;96175.75;4953355;28;20030;-35
2020/12/13 11:02:34;;;;;;;13.25;4.32;;;;;;;26.26;28.57;96172.09;4970621;28;20034;-40
2020/12/13 11:05:00;;;;;;;12.48;4.40;;;;;;;26.30;28.89;96173.59;4959010;28;20031;-38
2020/12/13 11:07:26;;;;;;;12.77;5.00;;;;;;;26.31;28.86;96172.66;4959728;28;20489;-39
2020/12/13 11:09:52;;;;;;;13.75;4.47;;;;;;;26.34;29.05;96175.06;4959813;28;20062;-37
2020/12/13 11:12:17;;;;;;;16.52;4.43;;;;;;;26.38;29.00;96177.50;4959275;28;20054;-38
2020/12/13 11:14:43;;;;;;;11.05;4.57;;;;;;;26.40;28.97;96175.63;4958420;28;20047;-39
2020/12/13 11:17:09;;;;;;;11.75;4.45;;;;;;;26.41;28.89;96177.28;4952794;28;20038;-38
2020/12/13 11:19:34;;;;;;;12.15;4.03;;;;;;;26.42;28.89;96185.09;4958222;28;20047;-40
2020/12/13 11:22:00;;;;;;;11.77;4.72;;;;;;;26.43;28.99;96178.06;4953287;28;20050;-37
2020/12/13 11:24:25;;;;;;;14.80;5.15;;;;;;;26.46;29.08;96185.72;4951040;28;20034;-36
2020/12/13 11:26:51;;;;;;;14.20;3.92;;;;;;;26.47;29.10;96183.00;4960326;28;20039;-38
2020/12/13 11:29:17;;;;;;;11.32;4.57;;;;;;;26.48;28.79;96175.97;4961113;28;20664;-39
2020/12/13 11:31:42;;;;;;;9.80;3.97;;;;;;;26.51;29.06;96178.41;4957548;28;20043;-38
2020/12/13 11:34:08;;;;;;;12.80;4.20;;;;;;;26.53;28.95;96179.13;4954132;28;20101;-39
2020/12/13 11:36:34;;;;;;;12.50;3.75;;;;;;;26.54;29.01;96178.16;4954922;28;20038;-38
2020/12/13 11:38:59;;;;;;;9.05;3.95;;;;;;;26.55;29.16;96179.03;4978140;28;20050;-37